createdAt,value
2018-04-01T00:00:11.984Z,99965.69
2018-04-01T00:02:37.577Z,99960.37
2018-04-01T00:05:03.180Z,99957.77
2018-04-01T00:07:28.796Z,99962.07
2018-04-01T00:09:54.405Z,99962.23
2018-04-01T00:12:20.065Z,99959.98
2018-04-01T00:14:45.685Z,99961.81
2018-04-01T00:17:11.344Z,99973.06
2018-04-01T00:19:36.976Z,99965.48
2018-04-01T00:22:02.612Z,99973.67
2018-04-01T00:24:28.252Z,99980.42
2018-04-01T00:26:53.884Z,99973.08
2018-04-01T00:29:19.492Z,99973.25
2018-04-01T00:31:45.087Z,99968.95
2018-04-01T00:34:10.689Z,99960.79
2018-04-01T00:36:36.318Z,99963.58
2018-04-01T00:39:01.984Z,99969.60
2018-04-01T00:41:27.609Z,99972.10
2018-04-01T00:43:53.320Z,99973.78
2018-04-01T00:46:18.917Z,99972.56
2018-04-01T00:48:44.528Z,99981.09
2018-04-01T00:51:10.524Z,99952.72
2018-04-01T00:53:36.124Z,99972.48
2018-04-01T00:56:01.736Z,99965.06
2018-04-01T00:58:27.360Z,99971.30
2018-04-01T01:00:52.973Z,99973.98
2018-04-01T01:03:18.559Z,99968.51
2018-04-01T01:05:44.163Z,99969.14
2018-04-01T01:08:09.750Z,99967.75
2018-04-01T01:10:35.341Z,99965.66
2018-04-01T01:13:00.933Z,99969.63
2018-04-01T01:15:26.539Z,99974.19
2018-04-01T01:17:52.167Z,99968.51
2018-04-01T01:20:17.760Z,99976.83
2018-04-01T01:22:43.396Z,99977.87
2018-04-01T01:25:09.004Z,99983.97
2018-04-01T01:27:34.599Z,99981.77
2018-04-01T01:30:00.208Z,99987.94
2018-04-01T01:32:25.812Z,99984.98
2018-04-01T01:34:51.400Z,99981.19
2018-04-01T01:37:17.040Z,99977.30
2018-04-01T01:39:42.628Z,99972.36
2018-04-01T01:42:08.269Z,99967.05
2018-04-01T01:44:33.884Z,99975.16
2018-04-01T01:46:59.532Z,99966.38
2018-04-01T01:49:25.161Z,99964.71
2018-04-01T01:51:50.801Z,99976.08
2018-04-01T01:54:16.401Z,99983.88
2018-04-01T01:56:42.017Z,99986.77
2018-04-01T01:59:07.651Z,99981.12
2018-04-01T02:01:33.260Z,99981.44
2018-04-01T02:03:58.860Z,99980.36
2018-04-01T02:06:24.456Z,99975.67
2018-04-01T02:08:50.059Z,99972.75
2018-04-01T02:11:15.697Z,99970.20
2018-04-01T02:13:41.310Z,99975.86
2018-04-01T02:16:06.907Z,99969.47
2018-04-01T02:18:32.529Z,99968.13
2018-04-01T02:20:58.133Z,99972.44
2018-04-01T02:23:23.848Z,99965.75
2018-04-01T02:25:49.466Z,99971.22
2018-04-01T02:28:15.089Z,99977.58
2018-04-01T02:30:40.714Z,99988.80
2018-04-01T02:33:06.326Z,99973.38
2018-04-01T02:35:31.937Z,99972.28
2018-04-01T02:37:57.562Z,99971.73
2018-04-01T02:40:23.186Z,99975.88
2018-04-01T02:42:48.776Z,99972.95
2018-04-01T02:45:14.400Z,99975.17
2018-04-01T02:47:40.001Z,99982.53
2018-04-01T02:50:05.746Z,99983.41
2018-04-01T02:52:31.361Z,99977.26
2018-04-01T02:54:56.977Z,99974.83
2018-04-01T02:57:22.578Z,99971.23
2018-04-01T02:59:48.193Z,99972.98
2018-04-01T03:02:13.790Z,99977.34
2018-04-01T03:04:39.437Z,99984.37
2018-04-01T03:07:05.016Z,99993.69
2018-04-01T03:09:30.629Z,99985.87
2018-04-01T03:11:56.257Z,99989.17
2018-04-01T03:14:21.861Z,99991.85
2018-04-01T03:16:47.504Z,99995.32
2018-04-01T03:19:13.115Z,99999.28
2018-04-01T03:21:38.740Z,99999.28
2018-04-01T03:24:04.369Z,100000.70
2018-04-01T03:26:29.991Z,100006.02
2018-04-01T03:28:55.590Z,100004.64
2018-04-01T03:31:21.224Z,100006.98
2018-04-01T03:33:46.808Z,99998.95
2018-04-01T03:36:12.929Z,100005.30
2018-04-01T03:38:38.536Z,99997.36
2018-04-01T03:41:04.132Z,100006.05
2018-04-01T03:43:29.727Z,100004.13
2018-04-01T03:45:55.340Z,100005.64
2018-04-01T03:48:20.937Z,100009.86
2018-04-01T03:50:46.588Z,100014.63
2018-04-01T03:53:12.204Z,100019.62
2018-04-01T03:55:37.809Z,100024.22
2018-04-01T03:58:03.404Z,100020.59
2018-04-01T04:00:29.013Z,100027.77
2018-04-01T04:02:54.633Z,100020.36
2018-04-01T04:05:20.249Z,100026.88
2018-04-01T04:07:45.884Z,100022.20
2018-04-01T04:10:11.511Z,100031.67
2018-04-01T04:12:37.108Z,100038.37
2018-04-01T04:15:02.729Z,100036.45
2018-04-01T04:17:28.330Z,100027.50
2018-04-01T04:19:53.932Z,100041.78
2018-04-01T04:22:19.775Z,100049.13
2018-04-01T04:24:45.400Z,100052.86
2018-04-01T04:27:11.008Z,100047.92
2018-04-01T04:29:36.625Z,100062.69
2018-04-01T04:32:02.233Z,100060.77
2018-04-01T04:34:27.832Z,100063.86
2018-04-01T04:36:53.457Z,100064.94
2018-04-01T04:39:19.044Z,100052.53
2018-04-01T04:41:44.636Z,100059.77
2018-04-01T04:44:10.277Z,100062.67
2018-04-01T04:46:35.865Z,100058.27
2018-04-01T04:49:01.511Z,100068.06
2018-04-01T04:51:27.785Z,100058.99
2018-04-01T04:53:53.440Z,100063.20
2018-04-01T04:56:19.054Z,100062.17
2018-04-01T04:58:44.676Z,100052.78
2018-04-01T05:01:10.264Z,100064.86
2018-04-01T05:03:35.872Z,100064.50
2018-04-01T05:06:01.472Z,100064.97
2018-04-01T05:08:27.125Z,100067.45
2018-04-01T05:10:52.696Z,100073.51
2018-04-01T05:13:18.302Z,100066.70
2018-04-01T05:15:43.905Z,100069.96
2018-04-01T05:18:09.564Z,100077.23
2018-04-01T05:20:35.555Z,100076.95
2018-04-01T05:23:01.156Z,100087.11
2018-04-01T05:25:26.788Z,100087.41
2018-04-01T05:27:52.381Z,100088.67
2018-04-01T05:30:17.984Z,100096.28
2018-04-01T05:32:43.634Z,100092.02
2018-04-01T05:35:09.257Z,100095.22
2018-04-01T05:37:34.853Z,100099.63
2018-04-01T05:40:00.471Z,100103.36
2018-04-01T05:42:26.061Z,100104.34
2018-04-01T05:44:51.696Z,100102.94
2018-04-01T05:47:17.314Z,100102.16
2018-04-01T05:49:42.955Z,100104.50
2018-04-01T05:52:09.102Z,100105.17
2018-04-01T05:54:34.705Z,100105.77
2018-04-01T05:57:00.312Z,100113.59
2018-04-01T05:59:25.945Z,100120.60
2018-04-01T06:01:51.535Z,100119.77
2018-04-01T06:04:17.140Z,100124.49
2018-04-01T06:06:42.739Z,100123.68
2018-04-01T06:09:08.537Z,100124.26
2018-04-01T06:11:34.184Z,100110.05
2018-04-01T06:13:59.794Z,100130.66
2018-04-01T06:16:25.397Z,100132.73
2018-04-01T06:18:51.054Z,100135.66
2018-04-01T06:21:17.026Z,100135.30
2018-04-01T06:23:42.641Z,100137.03
2018-04-01T06:26:08.263Z,100114.67
2018-04-01T06:28:33.875Z,100141.96
2018-04-01T06:30:59.488Z,100144.47
2018-04-01T06:33:25.105Z,100138.16
2018-04-01T06:35:50.759Z,100152.26
2018-04-01T06:38:16.513Z,100153.81
2018-04-01T06:40:42.120Z,100153.81
2018-04-01T06:43:07.719Z,100137.73
2018-04-01T06:45:33.309Z,100155.36
2018-04-01T06:47:58.912Z,100154.77
2018-04-01T06:50:24.513Z,100155.83
2018-04-01T06:52:50.174Z,100148.22
2018-04-01T06:55:15.851Z,100153.52
2018-04-01T06:57:41.447Z,100152.60
2018-04-01T07:00:07.271Z,100153.44
2018-04-01T07:02:32.903Z,100153.69
2018-04-01T07:04:58.508Z,100162.48
2018-04-01T07:07:24.110Z,100165.33
2018-04-01T07:09:49.736Z,100164.07
2018-04-01T07:12:15.339Z,100166.20
2018-04-01T07:14:40.949Z,100170.20
2018-04-01T07:17:06.783Z,100171.88
2018-04-01T07:19:32.410Z,100178.00
2018-04-01T07:21:58.300Z,100181.14
2018-04-01T07:24:23.912Z,100178.84
2018-04-01T07:26:49.534Z,100181.61
2018-04-01T07:29:15.136Z,100185.45
2018-04-01T07:31:40.749Z,100186.11
2018-04-01T07:34:06.346Z,100198.49
2018-04-01T07:36:31.951Z,100198.95
2018-04-01T07:38:57.609Z,100198.09
2018-04-01T07:41:23.216Z,100195.16
2018-04-01T07:43:48.804Z,100189.84
2018-04-01T07:46:14.436Z,100197.59
2018-04-01T07:48:40.032Z,100195.70
2018-04-01T07:51:05.637Z,100196.67
2018-04-01T07:53:31.264Z,100197.84
2018-04-01T07:55:57.193Z,100200.61
2018-04-01T07:58:22.796Z,100199.77
2018-04-01T08:00:48.418Z,100191.61
2018-04-01T08:03:14.008Z,100202.87
2018-04-01T08:05:39.604Z,100206.63
2018-04-01T08:08:05.259Z,100204.69
2018-04-01T08:10:30.830Z,100205.11
2018-04-01T08:12:56.433Z,100207.95
2018-04-01T08:15:22.048Z,100210.55
2018-04-01T08:17:47.668Z,100211.09
2018-04-01T08:20:13.278Z,100214.33
2018-04-01T08:22:38.999Z,100216.84
2018-04-01T08:25:04.611Z,100216.19
2018-04-01T08:27:30.237Z,100223.42
2018-04-01T08:29:55.831Z,100225.26
2018-04-01T08:32:21.441Z,100223.11
2018-04-01T08:34:47.052Z,100221.58
2018-04-01T08:37:12.674Z,100226.44
2018-04-01T08:39:38.288Z,100228.85
2018-04-01T08:42:03.909Z,100228.36
2018-04-01T08:44:29.519Z,100234.59
2018-04-01T08:46:55.121Z,100226.13
2018-04-01T08:49:20.748Z,100225.84
2018-04-01T08:51:46.350Z,100229.50
2018-04-01T08:54:12.042Z,100218.18
2018-04-01T08:56:37.723Z,100229.17
2018-04-01T08:59:03.305Z,100226.79
2018-04-01T09:01:28.909Z,100225.03
2018-04-01T09:03:54.537Z,100232.23
2018-04-01T09:06:20.212Z,100230.57
2018-04-01T09:08:45.813Z,100236.81
2018-04-01T09:11:11.441Z,100241.45
2018-04-01T09:13:37.047Z,100248.52
2018-04-01T09:16:02.648Z,100244.37
2018-04-01T09:18:28.260Z,100254.00
2018-04-01T09:20:54.112Z,100251.86
2018-04-01T09:23:19.709Z,100255.53
2018-04-01T09:25:45.389Z,100262.45
2018-04-01T09:28:10.998Z,100247.90
2018-04-01T09:30:36.620Z,100272.98
2018-04-01T09:33:02.228Z,100280.73
2018-04-01T09:35:27.864Z,100274.13
2018-04-01T09:37:53.539Z,100268.00
2018-04-01T09:40:19.170Z,100268.11
2018-04-01T09:42:44.789Z,100271.94
2018-04-01T09:45:10.403Z,100276.17
2018-04-01T09:47:36.017Z,100276.20
2018-04-01T09:50:01.627Z,100279.41
2018-04-01T09:52:27.243Z,100281.24
2018-04-01T09:54:52.908Z,100275.64
2018-04-01T09:57:18.508Z,100281.48
2018-04-01T09:59:44.103Z,100276.73
2018-04-01T10:02:09.786Z,100276.59
2018-04-01T10:04:35.449Z,100276.70
2018-04-01T10:07:01.105Z,100270.09
2018-04-01T10:09:26.767Z,100274.56
2018-04-01T10:11:52.417Z,100273.91
2018-04-01T10:14:18.073Z,100269.45
2018-04-01T10:16:43.720Z,100273.81
2018-04-01T10:19:09.407Z,100275.79
2018-04-01T10:21:35.157Z,100276.80
2018-04-01T10:24:00.874Z,100278.55
2018-04-01T10:26:26.545Z,100276.25
2018-04-01T10:28:52.212Z,100278.34
2018-04-01T10:31:17.876Z,100291.17
2018-04-01T10:33:43.560Z,100284.85
2018-04-01T10:36:09.219Z,100289.66
2018-04-01T10:38:35.245Z,100284.96
2018-04-01T10:41:00.889Z,100288.98
2018-04-01T10:43:26.611Z,100293.40
2018-04-01T10:45:52.256Z,100292.51
2018-04-01T10:48:17.920Z,100308.72
2018-04-01T10:50:43.590Z,100303.77
2018-04-01T10:53:09.282Z,100309.52
2018-04-01T10:55:34.901Z,100313.45
2018-04-01T10:58:01.021Z,100318.98
2018-04-01T11:00:26.669Z,100316.70
2018-04-01T11:02:52.273Z,100322.97
2018-04-01T11:05:17.881Z,100326.17
2018-04-01T11:07:43.493Z,100317.27
2018-04-01T11:10:09.100Z,100315.25
2018-04-01T11:12:34.708Z,100321.86
2018-04-01T11:15:00.394Z,100325.61
2018-04-01T11:17:26.006Z,100317.86
2018-04-01T11:19:51.641Z,100317.91
2018-04-01T11:22:17.296Z,100325.59
2018-04-01T11:24:42.927Z,100330.58
2018-04-01T11:27:08.704Z,100331.07
2018-04-01T11:29:34.316Z,100339.59
2018-04-01T11:31:59.909Z,100339.72
2018-04-01T11:34:25.512Z,100333.44
2018-04-01T11:36:51.122Z,100338.16
2018-04-01T11:39:16.737Z,100334.73
2018-04-01T11:41:42.364Z,100341.37
2018-04-01T11:44:07.974Z,100349.92
2018-04-01T11:46:33.573Z,100347.44
2018-04-01T11:48:59.189Z,100348.14
2018-04-01T11:51:25.152Z,100340.45
2018-04-01T11:53:50.772Z,100344.64
2018-04-01T11:56:16.400Z,100350.16
2018-04-01T11:58:41.984Z,100342.63
2018-04-01T12:01:07.577Z,100348.49
2018-04-01T12:03:33.193Z,100351.56
2018-04-01T12:05:58.790Z,100353.52
2018-04-01T12:08:24.466Z,100351.83
2018-04-01T12:10:50.096Z,100353.28
2018-04-01T12:13:15.697Z,100354.81
2018-04-01T12:15:41.305Z,100356.53
2018-04-01T12:18:06.946Z,100350.77
2018-04-01T12:20:32.573Z,100359.05
2018-04-01T12:22:58.192Z,100371.48
2018-04-01T12:25:23.810Z,100360.16
2018-04-01T12:27:49.412Z,100354.48
2018-04-01T12:30:15.236Z,100355.61
2018-04-01T12:32:40.856Z,100355.09
2018-04-01T12:35:06.460Z,100357.84
2018-04-01T12:37:32.080Z,100357.55
2018-04-01T12:39:57.802Z,100359.31
2018-04-01T12:42:23.417Z,100362.76
2018-04-01T12:44:49.032Z,100368.91
2018-04-01T12:47:14.644Z,100362.33
2018-04-01T12:49:40.231Z,100371.39
2018-04-01T12:52:05.872Z,100371.94
2018-04-01T12:54:31.479Z,100371.84
2018-04-01T12:56:57.327Z,100384.13
2018-04-01T12:59:22.963Z,100355.55
2018-04-01T13:01:48.592Z,100370.88
2018-04-01T13:04:14.185Z,100381.96
2018-04-01T13:06:39.800Z,100377.33
2018-04-01T13:09:05.400Z,100370.13
2018-04-01T13:11:31.016Z,100374.11
2018-04-01T13:13:56.632Z,100376.29
2018-04-01T13:16:22.234Z,100383.41
2018-04-01T13:18:47.884Z,100378.17
2018-04-01T13:21:13.472Z,100383.61
2018-04-01T13:23:39.075Z,100377.02
2018-04-01T13:26:04.745Z,100376.77
2018-04-01T13:28:30.368Z,100375.84
2018-04-01T13:30:55.973Z,100370.95
2018-04-01T13:33:21.581Z,100366.89
2018-04-01T13:35:47.212Z,100383.61
2018-04-01T13:38:12.817Z,100382.61
2018-04-01T13:40:38.413Z,100374.53
2018-04-01T13:43:04.008Z,100360.84
2018-04-01T13:45:29.627Z,100376.08
2018-04-01T13:47:55.237Z,100374.38
2018-04-01T13:50:20.860Z,100376.78
2018-04-01T13:52:46.464Z,100379.45
2018-04-01T13:55:12.083Z,100383.20
2018-04-01T13:57:37.997Z,100381.56
2018-04-01T14:00:03.610Z,100380.50
2018-04-01T14:02:29.220Z,100387.25
2018-04-01T14:04:54.825Z,100396.03
2018-04-01T14:07:20.444Z,100389.37
2018-04-01T14:09:46.061Z,100399.14
2018-04-01T14:12:11.722Z,100399.11
2018-04-01T14:14:37.396Z,100395.06
2018-04-01T14:17:03.017Z,100400.13
2018-04-01T14:19:28.614Z,100404.23
2018-04-01T14:21:55.102Z,100399.38
2018-04-01T14:24:20.716Z,100398.05
2018-04-01T14:26:46.324Z,100398.88
2018-04-01T14:29:11.991Z,100400.61
2018-04-01T14:31:37.619Z,100413.34
2018-04-01T14:34:03.224Z,100403.30
2018-04-01T14:36:28.934Z,100397.55
2018-04-01T14:38:54.509Z,100399.33
2018-04-01T14:41:20.101Z,100396.89
2018-04-01T14:43:45.707Z,100407.87
2018-04-01T14:46:11.342Z,100405.44
2018-04-01T14:48:36.941Z,100406.45
2018-04-01T14:51:02.540Z,100403.44
2018-04-01T14:53:28.174Z,100402.64
2018-04-01T14:55:53.791Z,100413.00
2018-04-01T14:58:19.669Z,100409.64
2018-04-01T15:00:45.283Z,100416.03
2018-04-01T15:03:10.890Z,100423.50
2018-04-01T15:05:36.500Z,100419.24
2018-04-01T15:08:02.183Z,100420.16
2018-04-01T15:10:27.846Z,100426.06
2018-04-01T15:12:53.451Z,100432.59
2018-04-01T15:15:19.041Z,100430.40
2018-04-01T15:17:44.639Z,100436.75
2018-04-01T15:20:10.263Z,100434.68
2018-04-01T15:22:35.868Z,100432.05
2018-04-01T15:25:01.482Z,100428.84
2018-04-01T15:27:27.100Z,100436.59
2018-04-01T15:29:52.688Z,100445.89
2018-04-01T15:32:18.780Z,100433.66
2018-04-01T15:34:44.401Z,100444.92
2018-04-01T15:37:10.036Z,100445.53
2018-04-01T15:39:35.663Z,100447.17
2018-04-01T15:42:01.260Z,100460.05
2018-04-01T15:44:26.880Z,100457.27
2018-04-01T15:46:52.504Z,100447.36
2018-04-01T15:49:18.111Z,100467.89
2018-04-01T15:51:43.719Z,100459.98
2018-04-01T15:54:09.348Z,100472.52
2018-04-01T15:56:34.946Z,100460.20
2018-04-01T15:59:00.952Z,100472.42
2018-04-01T16:01:26.573Z,100478.16
2018-04-01T16:03:52.173Z,100480.65
2018-04-01T16:06:17.783Z,100474.09
2018-04-01T16:08:43.408Z,100473.37
2018-04-01T16:11:09.733Z,100476.67
2018-04-01T16:13:35.343Z,100471.56
2018-04-01T16:16:01.007Z,100482.89
2018-04-01T16:18:26.613Z,100486.31
2018-04-01T16:20:52.206Z,100493.03
2018-04-01T16:23:17.921Z,100489.00
2018-04-01T16:25:43.535Z,100495.44
2018-04-01T16:28:09.136Z,100501.90
2018-04-01T16:30:34.763Z,100501.85
2018-04-01T16:33:00.377Z,100499.34
2018-04-01T16:35:25.985Z,100506.30
2018-04-01T16:37:51.589Z,100494.77
2018-04-01T16:40:17.184Z,100498.20
2018-04-01T16:42:42.804Z,100498.23
2018-04-01T16:45:08.405Z,100514.50
2018-04-01T16:47:34.003Z,100505.62
2018-04-01T16:49:59.632Z,100517.97
2018-04-01T16:52:25.244Z,100526.64
2018-04-01T16:54:51.121Z,100526.47
2018-04-01T16:57:16.736Z,100525.07
2018-04-01T16:59:42.360Z,100523.99
2018-04-01T17:02:07.962Z,100532.66
2018-04-01T17:04:33.589Z,100531.55
2018-04-01T17:06:59.192Z,100535.58
2018-04-01T17:09:24.962Z,100529.34
2018-04-01T17:11:50.424Z,100540.16
2018-04-01T17:14:16.024Z,100537.53
2018-04-01T17:16:41.640Z,100537.06
2018-04-01T17:19:07.253Z,100545.92
2018-04-01T17:21:32.864Z,100547.39
2018-04-01T17:23:58.488Z,100551.92
2018-04-01T17:26:24.104Z,100543.61
2018-04-01T17:28:50.012Z,100560.30
2018-04-01T17:31:15.636Z,100551.07
2018-04-01T17:33:41.252Z,100548.92
2018-04-01T17:36:06.873Z,100552.07
2018-04-01T17:38:32.476Z,100557.60
2018-04-01T17:40:58.083Z,100561.52
2018-04-01T17:43:24.107Z,100563.88
2018-04-01T17:45:49.717Z,100562.20
2018-04-01T17:48:15.338Z,100560.33
2018-04-01T17:50:40.962Z,100563.47
2018-04-01T17:53:07.446Z,100560.39
2018-04-01T17:55:33.055Z,100559.92
2018-04-01T17:57:58.689Z,100566.57
2018-04-01T18:00:24.296Z,100570.48
2018-04-01T18:02:49.896Z,100571.91
2018-04-01T18:05:15.509Z,100566.89
2018-04-01T18:07:41.097Z,100572.82
2018-04-01T18:10:06.692Z,100580.51
2018-04-01T18:12:32.329Z,100582.48
2018-04-01T18:14:57.956Z,100584.83
2018-04-01T18:17:23.554Z,100581.39
2018-04-01T18:19:49.551Z,100585.45
2018-04-01T18:22:15.169Z,100591.57
2018-04-01T18:24:40.833Z,100597.38
2018-04-01T18:27:06.477Z,100592.87
2018-04-01T18:29:32.094Z,100604.30
2018-04-01T18:31:57.802Z,100611.86
2018-04-01T18:34:23.383Z,100614.50
2018-04-01T18:36:49.136Z,100615.00
2018-04-01T18:39:14.736Z,100621.10
2018-04-01T18:41:40.324Z,100624.73
2018-04-01T18:44:05.922Z,100622.66
2018-04-01T18:46:31.547Z,100632.05
2018-04-01T18:48:57.144Z,100626.75
2018-04-01T18:51:22.815Z,100631.98
2018-04-01T18:53:48.492Z,100624.20
2018-04-01T18:56:14.080Z,100596.09
2018-04-01T18:58:39.697Z,100627.63
2018-04-01T19:01:05.361Z,100629.41
2018-04-01T19:03:31.464Z,100631.97
2018-04-01T19:05:57.064Z,100632.54
2018-04-01T19:08:22.672Z,100631.28
2018-04-01T19:10:48.476Z,100645.59
2018-04-01T19:13:14.096Z,100648.72
2018-04-01T19:15:39.716Z,100653.86
2018-04-01T19:18:05.385Z,100646.65
2018-04-01T19:20:31.052Z,100655.14
2018-04-01T19:22:56.753Z,100650.87
2018-04-01T19:25:22.443Z,100654.88
2018-04-01T19:27:48.537Z,100646.04
2018-04-01T19:30:14.211Z,100660.02
2018-04-01T19:32:39.872Z,100660.28
2018-04-01T19:35:05.521Z,100663.91
2018-04-01T19:37:31.272Z,100669.47
2018-04-01T19:39:56.952Z,100665.58
2018-04-01T19:42:22.640Z,100662.61
2018-04-01T19:44:48.342Z,100668.67
2018-04-01T19:47:14.020Z,100676.67
2018-04-01T19:49:39.684Z,100685.89
2018-04-01T19:52:05.355Z,100678.16
2018-04-01T19:54:31.011Z,100681.84
2018-04-01T19:56:56.728Z,100682.86
2018-04-01T19:59:22.411Z,100694.61
2018-04-01T20:01:48.104Z,100696.05
2018-04-01T20:04:13.768Z,100702.60
2018-04-01T20:06:39.452Z,100709.69
2018-04-01T20:09:05.124Z,100707.80
2018-04-01T20:11:30.819Z,100701.24
2018-04-01T20:13:56.547Z,100699.42
2018-04-01T20:16:22.174Z,100706.41
2018-04-01T20:18:47.837Z,100701.74
2018-04-01T20:21:13.549Z,100694.70
2018-04-01T20:23:39.209Z,100704.48
2018-04-01T20:26:05.105Z,100699.09
2018-04-01T20:28:30.757Z,100703.08
2018-04-01T20:30:56.432Z,100699.19
2018-04-01T20:33:22.100Z,100709.38
2018-04-01T20:35:47.779Z,100707.53
2018-04-01T20:38:13.441Z,100705.56
2018-04-01T20:40:39.114Z,100709.28
2018-04-01T20:43:05.447Z,100707.88
2018-04-01T20:45:31.124Z,100708.34
2018-04-01T20:47:56.820Z,100717.12
2018-04-01T20:50:22.471Z,100717.52
2018-04-01T20:52:48.152Z,100710.37
2018-04-01T20:55:13.845Z,100719.23
2018-04-01T20:57:39.521Z,100713.03
2018-04-01T21:00:05.508Z,100711.94
2018-04-01T21:02:31.208Z,100713.55
2018-04-01T21:04:56.876Z,100712.40
2018-04-01T21:07:22.584Z,100716.39
2018-04-01T21:09:48.269Z,100720.17
2018-04-01T21:12:13.932Z,100718.45
2018-04-01T21:14:39.600Z,100717.30
2018-04-01T21:17:05.274Z,100715.83
2018-04-01T21:19:30.924Z,100710.95
2018-04-01T21:21:56.589Z,100713.80
2018-04-01T21:24:22.273Z,100715.80
2018-04-01T21:26:47.931Z,100716.14
2018-04-01T21:29:13.583Z,100709.21
2018-04-01T21:31:39.684Z,100714.25
2018-04-01T21:34:05.363Z,100709.31
2018-04-01T21:36:31.028Z,100711.91
2018-04-01T21:38:56.696Z,100714.53
2018-04-01T21:41:22.366Z,100728.05
2018-04-01T21:43:48.037Z,100720.55
2018-04-01T21:46:13.717Z,100727.73
2018-04-01T21:48:39.393Z,100729.76
2018-04-01T21:51:05.084Z,100729.76
2018-04-01T21:53:30.771Z,100730.67
2018-04-01T21:55:56.925Z,100732.84
2018-04-01T21:58:22.709Z,100735.25
2018-04-01T22:00:48.393Z,100729.38
2018-04-01T22:03:14.064Z,100736.83
2018-04-01T22:05:39.757Z,100740.64
2018-04-01T22:08:05.430Z,100743.05
2018-04-01T22:10:31.076Z,100741.38
2018-04-01T22:12:56.772Z,100737.13
2018-04-01T22:15:22.417Z,100745.39
2018-04-01T22:17:48.065Z,100747.95
2018-04-01T22:20:13.772Z,100750.58
2018-04-01T22:22:45.457Z,100750.84
2018-04-01T22:25:11.464Z,100750.07
2018-04-01T22:27:37.129Z,100749.37
2018-04-01T22:30:02.793Z,100755.17
2018-04-01T22:32:28.468Z,100748.38
2018-04-01T22:34:54.125Z,100751.84
2018-04-01T22:37:19.811Z,100751.70
2018-04-01T22:39:45.462Z,100746.10
2018-04-01T22:42:11.171Z,100749.78
2018-04-01T22:44:36.856Z,100742.79
2018-04-01T22:47:02.508Z,100750.00
2018-04-01T22:49:28.199Z,100745.16
2018-04-01T22:51:53.893Z,100760.94
2018-04-01T22:54:19.567Z,100764.60
2018-04-01T22:56:45.577Z,100756.02
2018-04-01T22:59:11.248Z,100754.66
2018-04-01T23:01:36.904Z,100765.97
2018-04-01T23:04:02.572Z,100757.25
2018-04-01T23:06:28.247Z,100760.06
2018-04-01T23:08:53.906Z,100750.26
2018-04-01T23:11:19.560Z,100758.06
2018-04-01T23:13:45.248Z,100751.81
2018-04-01T23:16:10.897Z,100748.10
2018-04-01T23:18:36.550Z,100751.66
2018-04-01T23:21:02.230Z,100752.30
2018-04-01T23:23:27.900Z,100759.37
2018-04-01T23:25:53.890Z,100763.83
2018-04-01T23:28:19.574Z,100764.18
2018-04-01T23:30:45.237Z,100769.72
2018-04-01T23:33:10.897Z,100766.77
2018-04-01T23:35:36.569Z,100762.53
2018-04-01T23:38:02.228Z,100772.57
2018-04-01T23:40:27.881Z,100770.30
2018-04-01T23:42:53.540Z,100767.52
2018-04-01T23:45:19.200Z,100771.27
2018-04-01T23:47:44.888Z,100777.78
2018-04-01T23:50:10.558Z,100767.03
2018-04-01T23:52:36.232Z,100751.29
2018-04-01T23:55:02.271Z,100768.09
2018-04-01T23:57:27.960Z,100769.41
2018-04-01T23:59:53.617Z,100769.05
